sensor_id;sensor_type;location;lat;lon;timestamp;pressure;altitude;pressure_sealevel;temperature;humidity
47670;BME280;33408;52.062;11.722;2023-04-25T00:00:31;100250.44;;;5.94;100.00
47670;BME280;33408;52.062;11.722;2023-04-25T00:02:58;100253.00;;;5.94;100.00
47670;BME280;33408;52.062;11.722;2023-04-25T00:05:25;100245.22;;;6.11;100.00
47670;BME280;33408;52.062;11.722;2023-04-25T00:07:52;100243.34;;;6.28;100.00
47670;BME280;33408;52.062;11.722;2023-04-25T00:10:20;100254.50;;;6.29;100.00
47670;BME280;33408;52.062;11.722;2023-04-25T00:12:47;100249.44;;;6.16;100.00
47670;BME280;33408;52.062;11.722;2023-04-25T00:15:14;100244.38;;;6.10;100.00
47670;BME280;33408;52.062;11.722;2023-04-25T00:17:41;100252.00;;;6.18;100.00
47670;BME280;33408;52.062;11.722;2023-04-25T00:20:08;100251.97;;;6.23;100.00
47670;BME280;33408;52.062;11.722;2023-04-25T00:22:35;100255.50;;;6.11;100.00
47670;BME280;33408;52.062;11.722;2023-04-25T00:25:04;100254.69;;;6.04;100.00
47670;BME280;33408;52.062;11.722;2023-04-25T00:27:32;100256.38;;;6.08;100.00
47670;BME280;33408;52.062;11.722;2023-04-25T00:30:00;100256.38;;;6.08;100.00
47670;BME280;33408;52.062;11.722;2023-04-25T00:32:26;100254.72;;;5.95;100.00
47670;BME280;33408;52.062;11.722;2023-04-25T00:34:53;100258.16;;;5.97;100.00
47670;BME280;33408;52.062;11.722;2023-04-25T00:37:20;100253.88;;;5.99;100.00
47670;BME280;33408;52.062;11.722;2023-04-25T00:39:47;100246.94;;;6.12;100.00
47670;BME280;33408;52.062;11.722;2023-04-25T00:42:15;100254.66;;;6.12;100.00
47670;BME280;33408;52.062;11.722;2023-04-25T00:44:44;100261.38;;;6.27;100.00
47670;BME280;33408;52.062;11.722;2023-04-25T00:47:11;100261.25;;;6.41;100.00
47670;BME280;33408;52.062;11.722;2023-04-25T00:49:38;100263.78;;;6.45;100.00
47670;BME280;33408;52.062;11.722;2023-04-25T00:52:05;100260.25;;;6.59;100.00
47670;BME280;33408;52.062;11.722;2023-04-25T00:54:31;100261.06;;;6.61;100.00
47670;BME280;33408;52.062;11.722;2023-04-25T00:56:58;100257.56;;;6.66;100.00
47670;BME280;33408;52.062;11.722;2023-04-25T00:59:26;100261.03;;;6.67;100.00
47670;BME280;33408;52.062;11.722;2023-04-25T01:01:56;100259.25;;;6.72;100.00
47670;BME280;33408;52.062;11.722;2023-04-25T01:04:23;100256.69;;;6.70;100.00
47670;BME280;33408;52.062;11.722;2023-04-25T01:06:49;100255.09;;;6.57;100.00
47670;BME280;33408;52.062;11.722;2023-04-25T01:09:16;100253.41;;;6.53;100.00
47670;BME280;33408;52.062;11.722;2023-04-25T01:11:43;100262.84;;;6.55;100.00
47670;BME280;33408;52.062;11.722;2023-04-25T01:14:09;100260.25;;;6.57;100.00
47670;BME280;33408;52.062;11.722;2023-04-25T01:16:36;100253.38;;;6.56;100.00
47670;BME280;33408;52.062;11.722;2023-04-25T01:19:09;100253.38;;;6.56;100.00
47670;BME280;33408;52.062;11.722;2023-04-25T01:21:38;100261.13;;;6.56;100.00
47670;BME280;33408;52.062;11.722;2023-04-25T01:24:06;100256.78;;;6.58;100.00
47670;BME280;33408;52.062;11.722;2023-04-25T01:26:33;100267.09;;;6.56;100.00
47670;BME280;33408;52.062;11.722;2023-04-25T01:29:00;100258.59;;;6.50;100.00
47670;BME280;33408;52.062;11.722;2023-04-25T01:31:27;100262.72;;;6.68;100.00
47670;BME280;33408;52.062;11.722;2023-04-25T01:33:54;100262.75;;;6.62;100.00
47670;BME280;33408;52.062;11.722;2023-04-25T01:36:21;100253.25;;;6.71;100.00
47670;BME280;33408;52.062;11.722;2023-04-25T01:38:50;100256.66;;;6.73;100.00
47670;BME280;33408;52.062;11.722;2023-04-25T01:41:17;100262.59;;;6.80;100.00
47670;BME280;33408;52.062;11.722;2023-04-25T01:43:45;100267.72;;;6.82;100.00
47670;BME280;33408;52.062;11.722;2023-04-25T01:46:12;100267.72;;;6.83;100.00
47670;BME280;33408;52.062;11.722;2023-04-25T01:48:38;100265.09;;;6.86;100.00
47670;BME280;33408;52.062;11.722;2023-04-25T01:51:05;100261.75;;;6.80;100.00
47670;BME280;33408;52.062;11.722;2023-04-25T01:53:32;100273.88;;;6.70;100.00
47670;BME280;33408;52.062;11.722;2023-04-25T01:56:00;100267.78;;;6.75;100.00
47670;BME280;33408;52.062;11.722;2023-04-25T01:58:27;100269.38;;;6.86;100.00
47670;BME280;33408;52.062;11.722;2023-04-25T02:00:53;100264.41;;;6.72;100.00
47670;BME280;33408;52.062;11.722;2023-04-25T02:03:20;100264.38;;;6.75;100.00
47670;BME280;33408;52.062;11.722;2023-04-25T02:05:46;100259.16;;;6.83;100.00
47670;BME280;33408;52.062;11.722;2023-04-25T02:08:13;100258.22;;;6.87;100.00
47670;BME280;33408;52.062;11.722;2023-04-25T02:10:40;100269.34;;;6.90;100.00
47670;BME280;33408;52.062;11.722;2023-04-25T02:13:08;100266.75;;;6.90;100.00
47670;BME280;33408;52.062;11.722;2023-04-25T02:15:34;100268.44;;;6.94;100.00
47670;BME280;33408;52.062;11.722;2023-04-25T02:18:01;100267.47;;;7.03;100.00
47670;BME280;33408;52.062;11.722;2023-04-25T02:20:28;100262.38;;;6.99;100.00
47670;BME280;33408;52.062;11.722;2023-04-25T02:22:56;100271.09;;;6.87;100.00
47670;BME280;33408;52.062;11.722;2023-04-25T02:25:23;100271.00;;;6.98;100.00
47670;BME280;33408;52.062;11.722;2023-04-25T02:27:50;100273.59;;;6.94;100.00
47670;BME280;33408;52.062;11.722;2023-04-25T02:30:18;100266.78;;;6.87;100.00
47670;BME280;33408;52.062;11.722;2023-04-25T02:32:44;100266.84;;;6.84;100.00
47670;BME280;33408;52.062;11.722;2023-04-25T02:35:11;100270.34;;;6.77;100.00
47670;BME280;33408;52.062;11.722;2023-04-25T02:37:38;100270.31;;;6.82;100.00
47670;BME280;33408;52.062;11.722;2023-04-25T02:40:06;100267.78;;;6.75;100.00
47670;BME280;33408;52.062;11.722;2023-04-25T02:42:33;100271.22;;;6.76;100.00
47670;BME280;33408;52.062;11.722;2023-04-25T02:45:00;100273.75;;;6.79;100.00
47670;BME280;33408;52.062;11.722;2023-04-25T02:47:28;100268.59;;;6.81;100.00
47670;BME280;33408;52.062;11.722;2023-04-25T02:49:55;100265.16;;;6.80;100.00
47670;BME280;33408;52.062;11.722;2023-04-25T02:52:21;100263.47;;;6.78;100.00
47670;BME280;33408;52.062;11.722;2023-04-25T02:54:48;100256.69;;;6.70;100.00
47670;BME280;33408;52.062;11.722;2023-04-25T02:57:15;100261.75;;;6.78;100.00
47670;BME280;33408;52.062;11.722;2023-04-25T02:59:41;100257.44;;;6.80;100.00
47670;BME280;33408;52.062;11.722;2023-04-25T03:02:08;100261.78;;;6.77;100.00
47670;BME280;33408;52.062;11.722;2023-04-25T03:04:36;100250.56;;;6.81;100.00
47670;BME280;33408;52.062;11.722;2023-04-25T03:07:02;100258.44;;;6.68;100.00
47670;BME280;33408;52.062;11.722;2023-04-25T03:09:29;100256.78;;;6.61;100.00
47670;BME280;33408;52.062;11.722;2023-04-25T03:11:55;100254.25;;;6.53;100.00
47670;BME280;33408;52.062;11.722;2023-04-25T03:14:22;100253.50;;;6.44;100.00
47670;BME280;33408;52.062;11.722;2023-04-25T03:16:49;100255.19;;;6.46;100.00
47670;BME280;33408;52.062;11.722;2023-04-25T03:19:15;100252.84;;;6.22;100.00
47670;BME280;33408;52.062;11.722;2023-04-25T03:21:44;100258.81;;;6.25;100.00
47670;BME280;33408;52.062;11.722;2023-04-25T03:24:10;100255.50;;;6.11;100.00
47670;BME280;33408;52.062;11.722;2023-04-25T03:26:37;100253.91;;;5.97;100.00
47670;BME280;33408;52.062;11.722;2023-04-25T03:29:04;100247.03;;;5.90;100.00
47670;BME280;33408;52.062;11.722;2023-04-25T03:31:31;100258.19;;;5.89;100.00
47670;BME280;33408;52.062;11.722;2023-04-25T03:33:57;100261.63;;;5.90;100.00
47670;BME280;33408;52.062;11.722;2023-04-25T03:36:24;100258.16;;;5.94;100.00
47670;BME280;33408;52.062;11.722;2023-04-25T03:38:52;100264.19;;;5.94;100.00
47670;BME280;33408;52.062;11.722;2023-04-25T03:41:18;100260.72;;;5.94;100.00
47670;BME280;33408;52.062;11.722;2023-04-25T03:43:45;100266.75;;;5.99;100.00
47670;BME280;33408;52.062;11.722;2023-04-25T03:46:11;100268.41;;;6.06;100.00
47670;BME280;33408;52.062;11.722;2023-04-25T03:48:38;100268.44;;;5.94;100.00
47670;BME280;33408;52.062;11.722;2023-04-25T03:51:05;100275.28;;;6.06;100.00
47670;BME280;33408;52.062;11.722;2023-04-25T03:53:31;100274.34;;;6.13;100.00
47670;BME280;33408;52.062;11.722;2023-04-25T03:55:59;100266.59;;;6.17;100.00
47670;BME280;33408;52.062;11.722;2023-04-25T03:58:26;100267.41;;;6.21;100.00
47670;BME280;33408;52.062;11.722;2023-04-25T04:00:52;100276.78;;;6.33;100.00
47670;BME280;33408;52.062;11.722;2023-04-25T04:03:19;100278.41;;;6.40;100.00
47670;BME280;33408;52.062;11.722;2023-04-25T04:05:46;100278.38;;;6.48;100.00
47670;BME280;33408;52.062;11.722;2023-04-25T04:08:13;100268.06;;;6.49;100.00
47670;BME280;33408;52.062;11.722;2023-04-25T04:10:39;100280.88;;;6.54;100.00
47670;BME280;33408;52.062;11.722;2023-04-25T04:13:07;100279.09;;;6.61;100.00
47670;BME280;33408;52.062;11.722;2023-04-25T04:15:34;100276.56;;;6.56;100.00
47670;BME280;33408;52.062;11.722;2023-04-25T04:18:00;100277.34;;;6.63;100.00
47670;BME280;33408;52.062;11.722;2023-04-25T04:20:28;100279.16;;;6.53;100.00
47670;BME280;33408;52.062;11.722;2023-04-25T04:22:55;100281.66;;;6.62;100.00
47670;BME280;33408;52.062;11.722;2023-04-25T04:25:22;100275.63;;;6.62;100.00
47670;BME280;33408;52.062;11.722;2023-04-25T04:27:49;100281.56;;;6.73;100.00
47670;BME280;33408;52.062;11.722;2023-04-25T04:30:18;100289.31;;;6.71;100.00
47670;BME280;33408;52.062;11.722;2023-04-25T04:32:45;100284.97;;;6.75;100.00
47670;BME280;33408;52.062;11.722;2023-04-25T04:35:12;100284.91;;;6.84;100.00
47670;BME280;33408;52.062;11.722;2023-04-25T04:37:38;100284.84;;;6.87;100.00
47670;BME280;33408;52.062;11.722;2023-04-25T04:40:06;100285.66;;;6.92;100.00
47670;BME280;33408;52.062;11.722;2023-04-25T04:42:33;100296.78;;;6.94;100.00
47670;BME280;33408;52.062;11.722;2023-04-25T04:45:01;100296.75;;;6.99;100.00
47670;BME280;33408;52.062;11.722;2023-04-25T04:47:29;100296.69;;;7.05;100.00
47670;BME280;33408;52.062;11.722;2023-04-25T04:49:56;100298.31;;;7.12;100.00
47670;BME280;33408;52.062;11.722;2023-04-25T04:52:24;100296.69;;;7.07;100.00
47670;BME280;33408;52.062;11.722;2023-04-25T04:54:51;100304.19;;;7.24;100.00
47670;BME280;33408;52.062;11.722;2023-04-25T04:57:18;100297.53;;;7.07;100.00
47670;BME280;33408;52.062;11.722;2023-04-25T04:59:44;100308.50;;;7.23;100.00
47670;BME280;33408;52.062;11.722;2023-04-25T05:02:11;100304.19;;;7.24;100.00
47670;BME280;33408;52.062;11.722;2023-04-25T05:04:39;100308.50;;;7.23;100.00
47670;BME280;33408;52.062;11.722;2023-04-25T05:07:06;100312.84;;;7.20;100.00
47670;BME280;33408;52.062;11.722;2023-04-25T05:09:32;100314.50;;;7.25;100.00
47670;BME280;33408;52.062;11.722;2023-04-25T05:11:59;100307.69;;;7.20;100.00
47670;BME280;33408;52.062;11.722;2023-04-25T05:14:26;100308.59;;;7.14;100.00
47670;BME280;33408;52.062;11.722;2023-04-25T05:16:52;100315.28;;;7.30;100.00
47670;BME280;33408;52.062;11.722;2023-04-25T05:19:21;100317.09;;;7.24;100.00
47670;BME280;33408;52.062;11.722;2023-04-25T05:21:48;100321.44;;;7.20;100.00
47670;BME280;33408;52.062;11.722;2023-04-25T05:24:15;100328.22;;;7.27;100.00
47670;BME280;33408;52.062;11.722;2023-04-25T05:26:42;100329.97;;;7.24;100.00
47670;BME280;33408;52.062;11.722;2023-04-25T05:29:08;100330.00;;;7.21;100.00
47670;BME280;33408;52.062;11.722;2023-04-25T05:31:35;100328.25;;;7.24;100.00
47670;BME280;33408;52.062;11.722;2023-04-25T05:34:02;100332.56;;;7.22;100.00
47670;BME280;33408;52.062;11.722;2023-04-25T05:36:28;100341.28;;;7.12;100.00
47670;BME280;33408;52.062;11.722;2023-04-25T05:38:57;100339.59;;;7.09;100.00
47670;BME280;33408;52.062;11.722;2023-04-25T05:41:24;100352.41;;;7.16;100.00
47670;BME280;33408;52.062;11.722;2023-04-25T05:43:50;100348.88;;;7.24;100.00
47670;BME280;33408;52.062;11.722;2023-04-25T05:46:17;100352.31;;;7.26;100.00
47670;BME280;33408;52.062;11.722;2023-04-25T05:48:43;100357.59;;;7.14;100.00
47670;BME280;33408;52.062;11.722;2023-04-25T05:51:10;100363.56;;;7.18;100.00
47670;BME280;33408;52.062;11.722;2023-04-25T05:53:36;100362.75;;;7.14;100.00
47670;BME280;33408;52.062;11.722;2023-04-25T05:56:05;100367.88;;;7.16;100.00
47670;BME280;33408;52.062;11.722;2023-04-25T05:58:39;100370.53;;;7.08;100.00
47670;BME280;33408;52.062;11.722;2023-04-25T06:01:05;100368.88;;;7.04;100.00
47670;BME280;33408;52.062;11.722;2023-04-25T06:03:32;100374.91;;;7.01;100.00
47670;BME280;33408;52.062;11.722;2023-04-25T06:05:58;100376.59;;;7.04;100.00
47670;BME280;33408;52.062;11.722;2023-04-25T06:08:25;100390.28;;;7.10;100.00
47670;BME280;33408;52.062;11.722;2023-04-25T06:10:51;100395.50;;;7.03;100.00
47670;BME280;33408;52.062;11.722;2023-04-25T06:13:19;100395.47;;;7.07;100.00
47670;BME280;33408;52.062;11.722;2023-04-25T06:15:46;100391.09;;;7.12;100.00
47670;BME280;33408;52.062;11.722;2023-04-25T06:18:13;100395.22;;;7.29;100.00
47670;BME280;33408;52.062;11.722;2023-04-25T06:20:39;100397.78;;;7.30;100.00
47670;BME280;33408;52.062;11.722;2023-04-25T06:23:06;100407.34;;;7.22;100.00
47670;BME280;33408;52.062;11.722;2023-04-25T06:25:32;100402.06;;;7.36;100.00
47670;BME280;33408;52.062;11.722;2023-04-25T06:27:59;100397.44;;;7.63;100.00
47670;BME280;33408;52.062;11.722;2023-04-25T06:30:27;100394.31;;;7.35;100.00
47670;BME280;33408;52.062;11.722;2023-04-25T06:32:53;100399.44;;;7.41;100.00
47670;BME280;33408;52.062;11.722;2023-04-25T06:35:20;100394.31;;;7.36;100.00
47670;BME280;33408;52.062;11.722;2023-04-25T06:37:47;100394.06;;;7.58;100.00
47670;BME280;33408;52.062;11.722;2023-04-25T06:40:13;100400.16;;;7.52;100.00
47670;BME280;33408;52.062;11.722;2023-04-25T06:42:40;100402.44;;;7.77;100.00
47670;BME280;33408;52.062;11.722;2023-04-25T06:45:07;100406.03;;;7.66;100.00
47670;BME280;33408;52.062;11.722;2023-04-25T06:47:35;100404.34;;;7.61;100.00
47670;BME280;33408;52.062;11.722;2023-04-25T06:50:02;100406.91;;;7.64;100.00
47670;BME280;33408;52.062;11.722;2023-04-25T06:52:29;100403.44;;;7.66;100.00
47670;BME280;33408;52.062;11.722;2023-04-25T06:54:56;100405.97;;;7.70;100.00
47670;BME280;33408;52.062;11.722;2023-04-25T06:57:22;100411.28;;;7.56;100.00
47670;BME280;33408;52.062;11.722;2023-04-25T06:59:49;100418.06;;;7.64;100.00
47670;BME280;33408;52.062;11.722;2023-04-25T07:02:15;100417.00;;;7.82;100.00
47670;BME280;33408;52.062;11.722;2023-04-25T07:04:43;100418.53;;;7.99;100.00
47670;BME280;33408;52.062;11.722;2023-04-25T07:07:11;100417.09;;;7.75;100.00
47670;BME280;33408;52.062;11.722;2023-04-25T07:09:37;100422.31;;;8.35;100.00
47670;BME280;33408;52.062;11.722;2023-04-25T07:12:04;100425.28;;;8.08;100.00
47670;BME280;33408;52.062;11.722;2023-04-25T07:14:31;100420.41;;;8.50;100.00
47670;BME280;33408;52.062;11.722;2023-04-25T07:16:57;100430.72;;;8.53;100.00
47670;BME280;33408;52.062;11.722;2023-04-25T07:19:24;100429.59;;;8.07;100.00
47670;BME280;33408;52.062;11.722;2023-04-25T07:21:53;100423.97;;;7.73;100.00
47670;BME280;33408;52.062;11.722;2023-04-25T07:24:19;100421.25;;;7.85;100.00
47670;BME280;33408;52.062;11.722;2023-04-25T07:26:46;100419.59;;;7.81;100.00
47670;BME280;33408;52.062;11.722;2023-04-25T07:29:13;100427.63;;;8.26;100.00
47670;BME280;33408;52.062;11.722;2023-04-25T07:31:39;100429.41;;;8.82;100.00
47670;BME280;33408;52.062;11.722;2023-04-25T07:34:06;100423.63;;;9.19;100.00
47670;BME280;33408;52.062;11.722;2023-04-25T07:36:34;100432.72;;;9.40;100.00
47670;BME280;33408;52.062;11.722;2023-04-25T07:39:03;100419.44;;;9.58;100.00
47670;BME280;33408;52.062;11.722;2023-04-25T07:41:29;100410.00;;;9.56;100.00
47670;BME280;33408;52.062;11.722;2023-04-25T07:43:56;100423.50;;;9.25;100.00
47670;BME280;33408;52.062;11.722;2023-04-25T07:46:23;100420.13;;;9.21;100.00
47670;BME280;33408;52.062;11.722;2023-04-25T07:48:50;100421.59;;;8.85;100.00
47670;BME280;33408;52.062;11.722;2023-04-25T07:51:17;100429.88;;;9.07;100.00
47670;BME280;33408;52.062;11.722;2023-04-25T07:53:45;100426.53;;;9.00;100.00
47670;BME280;33408;52.062;11.722;2023-04-25T07:56:13;100441.53;;;9.29;100.00
47670;BME280;33408;52.062;11.722;2023-04-25T07:58:39;100431.97;;;9.35;100.00
47670;BME280;33408;52.062;11.722;2023-04-25T08:01:06;100437.38;;;9.19;100.00
47670;BME280;33408;52.062;11.722;2023-04-25T08:03:32;100448.34;;;9.34;100.00
47670;BME280;33408;52.062;11.722;2023-04-25T08:05:59;100443.28;;;9.29;100.00
47670;BME280;33408;52.062;11.722;2023-04-25T08:08:25;100441.75;;;9.64;100.00
47670;BME280;33408;52.062;11.722;2023-04-25T08:10:52;100447.16;;;9.53;100.00
47670;BME280;33408;52.062;11.722;2023-04-25T08:13:20;100443.97;;;9.84;100.00
47670;BME280;33408;52.062;11.722;2023-04-25T08:15:47;100449.78;;;9.52;100.00
47670;BME280;33408;52.062;11.722;2023-04-25T08:18:14;100445.41;;;10.39;100.00
47670;BME280;33408;52.062;11.722;2023-04-25T08:20:41;100453.84;;;10.07;100.00
47670;BME280;33408;52.062;11.722;2023-04-25T08:23:07;100465.91;;;10.08;100.00
47670;BME280;33408;52.062;11.722;2023-04-25T08:25:35;100463.66;;;9.91;97.99
47670;BME280;33408;52.062;11.722;2023-04-25T08:28:02;100464.94;;;9.70;96.64
47670;BME280;33408;52.062;11.722;2023-04-25T08:30:30;100475.53;;;10.03;90.33
47670;BME280;33408;52.062;11.722;2023-04-25T08:32:56;100467.41;;;10.18;86.00
47670;BME280;33408;52.062;11.722;2023-04-25T08:35:23;100472.03;;;10.85;87.59
47670;BME280;33408;52.062;11.722;2023-04-25T08:37:50;100469.91;;;10.23;84.77
47670;BME280;33408;52.062;11.722;2023-04-25T08:40:17;100474.25;;;10.22;83.10
47670;BME280;33408;52.062;11.722;2023-04-25T08:42:44;100466.00;;;10.83;84.83
47670;BME280;33408;52.062;11.722;2023-04-25T08:45:11;100478.28;;;10.37;83.53
47670;BME280;33408;52.062;11.722;2023-04-25T08:47:39;100474.34;;;10.58;85.80
47670;BME280;33408;52.062;11.722;2023-04-25T08:50:06;100464.00;;;10.58;85.91
47670;BME280;33408;52.062;11.722;2023-04-25T08:52:37;100479.81;;;10.04;84.60
47670;BME280;33408;52.062;11.722;2023-04-25T08:55:06;100489.75;;;9.80;84.72
47670;BME280;33408;52.062;11.722;2023-04-25T08:57:36;100494.56;;;9.55;83.12
47670;BME280;33408;52.062;11.722;2023-04-25T09:00:04;100500.50;;;9.60;84.43
47670;BME280;33408;52.062;11.722;2023-04-25T09:02:33;100501.00;;;9.79;83.19
47670;BME280;33408;52.062;11.722;2023-04-25T09:05:02;100495.59;;;10.35;80.12
47670;BME280;33408;52.062;11.722;2023-04-25T09:07:29;100501.69;;;10.33;76.53
47670;BME280;33408;52.062;11.722;2023-04-25T09:09:56;100498.75;;;10.50;79.28
47670;BME280;33408;52.062;11.722;2023-04-25T09:12:24;100508.56;;;10.74;81.76
47670;BME280;33408;52.062;11.722;2023-04-25T09:15:06;100510.88;;;10.48;80.95
47670;BME280;33408;52.062;11.722;2023-04-25T09:17:33;100512.69;;;10.00;78.34
47670;BME280;33408;52.062;11.722;2023-04-25T09:20:12;100512.66;;;10.02;76.20
47670;BME280;33408;52.062;11.722;2023-04-25T09:22:39;100516.25;;;10.40;73.91
47670;BME280;33408;52.062;11.722;2023-04-25T09:25:09;100513.25;;;10.15;78.24
47670;BME280;33408;52.062;11.722;2023-04-25T09:27:49;100522.25;;;9.97;77.49
47670;BME280;33408;52.062;11.722;2023-04-25T09:30:16;100522.69;;;10.17;76.07
47670;BME280;33408;52.062;11.722;2023-04-25T09:32:44;100521.84;;;10.17;76.05
47670;BME280;33408;52.062;11.722;2023-04-25T09:35:23;100527.06;;;10.15;72.60
47670;BME280;33408;52.062;11.722;2023-04-25T09:37:50;100533.31;;;10.49;72.76
47670;BME280;33408;52.062;11.722;2023-04-25T09:40:17;100525.59;;;11.22;71.38
47670;BME280;33408;52.062;11.722;2023-04-25T09:42:44;100530.97;;;11.49;73.75
47670;BME280;33408;52.062;11.722;2023-04-25T09:45:12;100526.47;;;10.85;71.70
47670;BME280;33408;52.062;11.722;2023-04-25T09:47:40;100526.78;;;10.29;73.05
47670;BME280;33408;52.062;11.722;2023-04-25T09:50:15;100551.50;;;10.02;69.50
47670;BME280;33408;52.062;11.722;2023-04-25T09:52:42;100543.97;;;9.88;69.49
47670;BME280;33408;52.062;11.722;2023-04-25T09:55:09;100545.78;;;9.84;70.32
47670;BME280;33408;52.062;11.722;2023-04-25T09:57:36;100556.72;;;9.99;70.19
47670;BME280;33408;52.062;11.722;2023-04-25T10:00:06;100552.13;;;9.68;69.00
47670;BME280;33408;52.062;11.722;2023-04-25T10:02:38;100553.41;;;9.92;69.69
47670;BME280;33408;52.062;11.722;2023-04-25T10:05:08;100557.44;;;10.07;70.49
47670;BME280;33408;52.062;11.722;2023-04-25T10:07:38;100556.94;;;9.86;70.47
47670;BME280;33408;52.062;11.722;2023-04-25T10:10:07;100554.91;;;10.04;70.14
47670;BME280;33408;52.062;11.722;2023-04-25T10:12:34;100552.97;;;9.68;69.68
47670;BME280;33408;52.062;11.722;2023-04-25T10:15:01;100560.97;;;10.03;70.14
47670;BME280;33408;52.062;11.722;2023-04-25T10:17:29;100561.63;;;10.58;69.80
47670;BME280;33408;52.062;11.722;2023-04-25T10:19:57;100560.81;;;10.11;69.59
47670;BME280;33408;52.062;11.722;2023-04-25T10:22:29;100558.25;;;9.61;71.10
47670;BME280;33408;52.062;11.722;2023-04-25T10:24:58;100556.56;;;9.60;73.65
47670;BME280;33408;52.062;11.722;2023-04-25T10:27:26;100576.81;;;9.35;74.73
47670;BME280;33408;52.062;11.722;2023-04-25T10:30:01;100581.84;;;9.44;76.75
47670;BME280;33408;52.062;11.722;2023-04-25T10:32:30;100579.44;;;9.31;75.79
47670;BME280;33408;52.062;11.722;2023-04-25T10:34:57;100595.25;;;9.13;71.53
47670;BME280;33408;52.062;11.722;2023-04-25T10:37:24;100581.88;;;9.42;72.95
47670;BME280;33408;52.062;11.722;2023-04-25T10:39:50;100597.94;;;9.63;73.35
47670;BME280;33408;52.062;11.722;2023-04-25T10:42:19;100594.94;;;9.35;74.44
47670;BME280;33408;52.062;11.722;2023-04-25T10:45:01;100605.94;;;8.87;82.19
47670;BME280;33408;52.062;11.722;2023-04-25T10:47:34;100608.75;;;8.71;85.94
47670;BME280;33408;52.062;11.722;2023-04-25T10:50:05;100608.53;;;8.87;91.26
47670;BME280;33408;52.062;11.722;2023-04-25T10:52:32;100611.97;;;8.89;88.28
47670;BME280;33408;52.062;11.722;2023-04-25T10:55:02;100608.94;;;9.21;87.19
47670;BME280;33408;52.062;11.722;2023-04-25T10:57:37;100602.56;;;9.42;83.60
47670;BME280;33408;52.062;11.722;2023-04-25T11:00:07;100601.53;;;9.53;81.29
47670;BME280;33408;52.062;11.722;2023-04-25T11:02:44;100601.06;;;9.80;79.96
47670;BME280;33408;52.062;11.722;2023-04-25T11:05:20;100600.66;;;9.54;76.21
47670;BME280;33408;52.062;11.722;2023-04-25T11:07:50;100595.41;;;9.60;75.54
47670;BME280;33408;52.062;11.722;2023-04-25T11:10:18;100593.38;;;9.77;76.41
47670;BME280;33408;52.062;11.722;2023-04-25T11:12:46;100595.13;;;10.22;75.54
47670;BME280;33408;52.062;11.722;2023-04-25T11:15:13;100597.91;;;10.99;76.23
47670;BME280;33408;52.062;11.722;2023-04-25T11:17:40;100593.03;;;10.43;76.26
47670;BME280;33408;52.062;11.722;2023-04-25T11:20:08;100582.09;;;9.80;77.28
47670;BME280;33408;52.062;11.722;2023-04-25T11:22:37;100600.38;;;9.71;79.22
47670;BME280;33408;52.062;11.722;2023-04-25T11:25:05;100595.72;;;9.38;73.10
47670;BME280;33408;52.062;11.722;2023-04-25T11:27:37;100604.69;;;9.72;73.06
47670;BME280;33408;52.062;11.722;2023-04-25T11:30:13;100598.97;;;10.02;71.62
47670;BME280;33408;52.062;11.722;2023-04-25T11:32:40;100598.88;;;10.07;68.85
47670;BME280;33408;52.062;11.722;2023-04-25T11:35:08;100600.59;;;10.08;67.07
47670;BME280;33408;52.062;11.722;2023-04-25T11:37:35;100605.88;;;10.02;65.18
47670;BME280;33408;52.062;11.722;2023-04-25T11:40:02;100604.34;;;10.40;65.77
47670;BME280;33408;52.062;11.722;2023-04-25T11:42:31;100609.28;;;10.51;65.27
47670;BME280;33408;52.062;11.722;2023-04-25T11:44:58;100605.66;;;10.14;63.69
47670;BME280;33408;52.062;11.722;2023-04-25T11:47:29;100623.28;;;9.94;67.37
47670;BME280;33408;52.062;11.722;2023-04-25T11:49:58;100601.91;;;9.82;66.90
47670;BME280;33408;52.062;11.722;2023-04-25T11:52:24;100613.72;;;9.99;68.08
47670;BME280;33408;52.062;11.722;2023-04-25T11:54:51;100613.03;;;9.88;66.69
47670;BME280;33408;52.062;11.722;2023-04-25T11:57:19;100620.72;;;9.92;64.07
47670;BME280;33408;52.062;11.722;2023-04-25T11:59:47;100632.50;;;10.10;61.55
47670;BME280;33408;52.062;11.722;2023-04-25T12:02:24;100621.56;;;10.41;61.38
47670;BME280;33408;52.062;11.722;2023-04-25T12:04:53;100627.84;;;10.73;65.12
47670;BME280;33408;52.062;11.722;2023-04-25T12:07:19;100626.66;;;10.47;68.05
47670;BME280;33408;52.062;11.722;2023-04-25T12:09:51;100632.59;;;10.52;69.01
47670;BME280;33408;52.062;11.722;2023-04-25T12:12:18;100635.28;;;10.46;68.69
47670;BME280;33408;52.062;11.722;2023-04-25T12:14:47;100636.09;;;10.51;70.78
47670;BME280;33408;52.062;11.722;2023-04-25T12:17:14;100631.47;;;11.06;68.24
47670;BME280;33408;52.062;11.722;2023-04-25T12:19:40;100635.03;;;11.01;63.71
47670;BME280;33408;52.062;11.722;2023-04-25T12:22:20;100630.97;;;11.28;64.79
47670;BME280;33408;52.062;11.722;2023-04-25T12:24:47;100631.59;;;12.43;68.25
47670;BME280;33408;52.062;11.722;2023-04-25T12:27:15;100636.16;;;11.28;64.26
47670;BME280;33408;52.062;11.722;2023-04-25T12:29:50;100630.56;;;11.07;64.07
47670;BME280;33408;52.062;11.722;2023-04-25T12:32:17;100636.00;;;10.97;62.76
47670;BME280;33408;52.062;11.722;2023-04-25T12:34:44;100635.56;;;10.76;65.63
47670;BME280;33408;52.062;11.722;2023-04-25T12:37:11;100634.53;;;10.83;66.53
47670;BME280;33408;52.062;11.722;2023-04-25T12:39:39;100638.16;;;10.76;62.57
47670;BME280;33408;52.062;11.722;2023-04-25T12:42:06;100634.47;;;10.44;61.85